createdAt,value
2018-04-16T00:00:13.473Z,99043.64
2018-04-16T00:02:47.216Z,99048.41
2018-04-16T00:05:20.460Z,99043.31
2018-04-16T00:07:54.020Z,99033.86
2018-04-16T00:10:27.792Z,99022.54
2018-04-16T00:13:01.353Z,99013.48
2018-04-16T00:15:34.856Z,99013.33
2018-04-16T00:18:08.793Z,99018.91
2018-04-16T00:20:42.157Z,99023.56
2018-04-16T00:23:15.728Z,99016.17
2018-04-16T00:25:49.268Z,99029.05
2018-04-16T00:28:22.675Z,99038.05
2018-04-16T00:30:56.938Z,99043.48
2018-04-16T00:33:35.794Z,99049.33
2018-04-16T00:36:24.265Z,99040.02
2018-04-16T00:41:06.158Z,99038.22
2018-04-16T00:45:45.859Z,99049.47
2018-04-16T00:50:29.424Z,99043.42
2018-04-16T00:55:09.772Z,99042.84
2018-04-16T00:59:50.469Z,99044.49
2018-04-16T01:04:31.623Z,99042.35
2018-04-16T01:09:11.452Z,99046.07
2018-04-16T01:13:50.977Z,99050.70
2018-04-16T01:18:35.386Z,99056.00
2018-04-16T01:22:14.624Z,99063.72
2018-04-16T01:24:55.101Z,99070.20
2018-04-16T01:29:35.625Z,99069.80
2018-04-16T01:34:16.212Z,99078.43
2018-04-16T01:39:01.898Z,99090.22
2018-04-16T01:42:41.448Z,99080.75
2018-04-16T01:47:23.696Z,99081.19
2018-04-16T01:51:01.596Z,99087.81
2018-04-16T01:55:41.236Z,99085.83
2018-04-16T02:00:23.690Z,99081.78
2018-04-16T02:05:03.548Z,99074.91
2018-04-16T02:09:42.951Z,99079.77
2018-04-16T02:14:25.908Z,99086.66
2018-04-16T02:17:08.985Z,99085.48
2018-04-16T02:21:48.506Z,99090.05
2018-04-16T02:26:30.793Z,99083.54
2018-04-16T02:31:10.603Z,99079.25
2018-04-16T02:35:51.164Z,99077.11
2018-04-16T02:40:33.534Z,99083.03
2018-04-16T02:43:12.604Z,99080.06
2018-04-16T02:45:50.987Z,99085.34
2018-04-16T02:48:29.693Z,99081.38
2018-04-16T02:53:15.051Z,99081.95
2018-04-16T02:55:53.720Z,99082.08
2018-04-16T03:00:33.989Z,99084.42
2018-04-16T03:05:14.846Z,99077.02
2018-04-16T03:09:54.627Z,99070.55
2018-04-16T03:14:33.951Z,99068.33
2018-04-16T03:19:14.639Z,99082.20
2018-04-16T03:23:57.250Z,99089.19
2018-04-16T03:28:37.504Z,99094.33
2018-04-16T03:33:19.166Z,99093.80
2018-04-16T03:38:02.835Z,99097.67
2018-04-16T03:40:41.348Z,99101.95
2018-04-16T03:45:22.929Z,99104.36
2018-04-16T03:50:02.376Z,99098.16
2018-04-16T03:52:40.153Z,99106.77
2018-04-16T03:55:13.481Z,99113.19
2018-04-16T03:57:46.957Z,99118.70
2018-04-16T04:00:20.513Z,99124.83
2018-04-16T04:02:54.598Z,99122.89
2018-04-16T04:05:27.887Z,99130.33
2018-04-16T04:08:01.286Z,99134.10
2018-04-16T04:10:34.544Z,99129.72
2018-04-16T04:13:07.749Z,99135.56
2018-04-16T04:15:41.226Z,99136.19
2018-04-16T04:18:14.458Z,99137.36
2018-04-16T04:20:48.133Z,99136.23
2018-04-16T04:23:41.546Z,99143.05
2018-04-16T04:30:33.992Z,99143.33
2018-04-16T04:33:07.482Z,99156.25
2018-04-16T04:35:41.187Z,99152.09
2018-04-16T04:38:15.711Z,99153.48
2018-04-16T04:40:49.686Z,99159.39
2018-04-16T04:43:24.597Z,99162.24
2018-04-16T04:45:57.849Z,99155.36
2018-04-16T04:48:31.146Z,99162.43
2018-04-16T04:51:05.086Z,99162.56
2018-04-16T04:53:39.920Z,99160.19
2018-04-16T04:56:29.978Z,99161.44
2018-04-16T04:59:20.644Z,99160.05
2018-04-16T05:01:59.016Z,99158.74
2018-04-16T05:04:32.495Z,99165.92
2018-04-16T05:07:06.092Z,99169.17
2018-04-16T05:09:39.315Z,99169.35
2018-04-16T05:12:13.044Z,99169.67
2018-04-16T05:14:46.817Z,99168.14
2018-04-16T05:17:20.206Z,99170.72
2018-04-16T05:19:53.747Z,99169.39
2018-04-16T05:22:27.926Z,99177.89
2018-04-16T05:25:01.595Z,99182.59
2018-04-16T05:27:35.107Z,99182.53
2018-04-16T05:30:09.254Z,99181.84
2018-04-16T05:32:46.781Z,99193.17
2018-04-16T05:35:20.500Z,99193.97
2018-04-16T05:37:54.098Z,99192.87
2018-04-16T05:40:27.737Z,99200.32
2018-04-16T05:43:03.762Z,99201.09
2018-04-16T05:45:37.625Z,99190.56
2018-04-16T05:48:11.304Z,99192.16
2018-04-16T05:50:45.018Z,99194.69
2018-04-16T05:53:20.334Z,99202.03
2018-04-16T05:55:54.380Z,99200.73
2018-04-16T05:58:27.949Z,99203.52
2018-04-16T06:01:01.455Z,99200.40
2018-04-16T06:03:35.010Z,99198.93
2018-04-16T06:06:09.790Z,99218.55
2018-04-16T06:08:44.400Z,99221.03
2018-04-16T06:11:18.139Z,99216.95
2018-04-16T06:13:53.324Z,99218.48
2018-04-16T06:16:27.788Z,99218.81
2018-04-16T06:19:01.536Z,99213.59
2018-04-16T06:21:38.456Z,99223.41
2018-04-16T06:24:12.300Z,99214.85
2018-04-16T06:26:46.177Z,99222.09
2018-04-16T06:29:22.217Z,99231.97
2018-04-16T06:31:57.529Z,99234.20
2018-04-16T06:34:31.279Z,99243.07
2018-04-16T06:37:05.327Z,99240.16
2018-04-16T06:39:40.062Z,99244.70
2018-04-16T06:42:14.790Z,99246.83
2018-04-16T06:44:49.063Z,99249.76
2018-04-16T06:47:22.647Z,99252.18
2018-04-16T06:49:56.611Z,99252.81
2018-04-16T06:52:30.115Z,99262.81
2018-04-16T06:55:03.539Z,99262.34
2018-04-16T06:57:37.856Z,99263.67
2018-04-16T07:00:11.357Z,99264.36
2018-04-16T07:02:44.765Z,99269.37
2018-04-16T07:05:19.699Z,99271.02
2018-04-16T07:07:55.039Z,99272.35
2018-04-16T07:10:28.810Z,99283.43
2018-04-16T07:13:04.399Z,99273.88
2018-04-16T07:15:37.887Z,99277.14
2018-04-16T07:18:11.585Z,99281.88
2018-04-16T07:20:45.792Z,99282.72
2018-04-16T07:23:23.717Z,99283.75
2018-04-16T07:25:57.091Z,99283.21
2018-04-16T07:28:30.526Z,99276.97
2018-04-16T07:31:05.938Z,99277.91
2018-04-16T07:33:39.414Z,99280.70
2018-04-16T07:36:13.361Z,99280.55
2018-04-16T07:38:47.294Z,99281.60
2018-04-16T07:41:20.779Z,99278.23
2018-04-16T07:43:55.392Z,99269.98
2018-04-16T07:46:29.275Z,99276.68
2018-04-16T07:49:04.592Z,99283.78
2018-04-16T07:51:38.536Z,99276.65
2018-04-16T07:54:12.912Z,99279.47
2018-04-16T07:56:46.938Z,99286.25
2018-04-16T07:59:20.269Z,99286.35
2018-04-16T08:01:53.900Z,99291.06
2018-04-16T08:04:28.260Z,99290.77
2018-04-16T08:07:01.772Z,99298.92
2018-04-16T08:09:35.044Z,99300.55
2018-04-16T08:12:10.136Z,99303.94
2018-04-16T08:14:44.463Z,99310.19
2018-04-16T08:17:18.344Z,99312.73
2018-04-16T08:19:52.852Z,99312.55
2018-04-16T08:22:26.636Z,99315.30
2018-04-16T08:25:00.310Z,99316.27
2018-04-16T08:27:33.923Z,99307.95
2018-04-16T08:30:11.253Z,99318.69
2018-04-16T08:32:44.891Z,99318.67
2018-04-16T08:35:18.458Z,99329.92
2018-04-16T08:37:52.777Z,99330.92
2018-04-16T08:40:26.214Z,99325.71
2018-04-16T08:42:59.710Z,99329.86
2018-04-16T08:45:34.354Z,99328.38
2018-04-16T08:48:08.239Z,99339.64
2018-04-16T08:50:41.791Z,99330.26
2018-04-16T08:53:17.551Z,99338.42
2018-04-16T08:55:51.375Z,99337.84
2018-04-16T08:58:25.653Z,99339.73
2018-04-16T09:00:59.460Z,99342.98
2018-04-16T09:03:36.068Z,99339.16
2018-04-16T09:06:10.559Z,99338.98
2018-04-16T09:08:45.299Z,99347.41
2018-04-16T09:11:19.860Z,99342.84
2018-04-16T09:13:53.950Z,99345.89
2018-04-16T09:16:27.501Z,99349.50
2018-04-16T09:19:01.072Z,99353.21
2018-04-16T09:21:35.781Z,99354.48
2018-04-16T09:24:09.515Z,99356.28
2018-04-16T09:26:43.014Z,99360.52
2018-04-16T09:29:17.210Z,99359.16
2018-04-16T09:31:50.851Z,99359.30
2018-04-16T09:34:24.615Z,99361.34
2018-04-16T09:37:02.137Z,99364.42
2018-04-16T09:39:38.527Z,99362.67
2018-04-16T09:42:12.607Z,99361.77
2018-04-16T09:44:46.418Z,99366.48
2018-04-16T09:47:21.050Z,99362.31
2018-04-16T09:49:54.469Z,99361.80
2018-04-16T09:52:28.701Z,99366.80
2018-04-16T09:55:03.322Z,99358.41
2018-04-16T09:57:36.966Z,99360.19
2018-04-16T10:00:11.087Z,99358.27
2018-04-16T10:02:49.229Z,99355.94
2018-04-16T10:05:23.982Z,99356.17
2018-04-16T10:07:57.389Z,99354.91
2018-04-16T10:10:31.178Z,99362.33
2018-04-16T10:13:04.994Z,99369.40
2018-04-16T10:15:39.729Z,99362.03
2018-04-16T10:18:13.154Z,99359.18
2018-04-16T10:20:46.808Z,99361.05
2018-04-16T10:23:23.659Z,99361.69
2018-04-16T10:25:57.416Z,99355.59
2018-04-16T10:28:31.335Z,99359.31
2018-04-16T10:31:05.460Z,99354.13
2018-04-16T10:33:38.853Z,99354.42
2018-04-16T10:36:12.360Z,99360.30
2018-04-16T10:38:46.262Z,99355.69
2018-04-16T10:41:20.163Z,99359.52
2018-04-16T10:43:53.682Z,99364.91
2018-04-16T10:46:27.691Z,99363.53
2018-04-16T10:49:01.072Z,99365.94
2018-04-16T10:51:35.416Z,99360.33
2018-04-16T10:54:09.232Z,99350.73
2018-04-16T10:56:43.148Z,99372.75
2018-04-16T10:59:17.836Z,99371.24
2018-04-16T11:01:51.363Z,99374.63
2018-04-16T11:04:24.818Z,99376.89
2018-04-16T11:06:58.590Z,99372.17
2018-04-16T11:09:32.277Z,99377.50
2018-04-16T11:12:05.738Z,99386.14
2018-04-16T11:14:40.100Z,99386.23
2018-04-16T11:17:13.686Z,99380.30
2018-04-16T11:19:47.819Z,99392.03
2018-04-16T11:22:22.327Z,99392.22
2018-04-16T11:24:55.628Z,99384.14
2018-04-16T11:27:29.346Z,99391.45
2018-04-16T11:30:05.099Z,99398.78
2018-04-16T11:32:39.122Z,99397.12
2018-04-16T11:35:13.681Z,99400.95
2018-04-16T11:37:47.333Z,99396.64
2018-04-16T11:40:20.875Z,99397.80
2018-04-16T11:42:56.672Z,99401.47
2018-04-16T11:45:33.750Z,99403.77
2018-04-16T11:48:08.131Z,99405.34
2018-04-16T11:50:41.772Z,99400.91
2018-04-16T11:53:17.245Z,99393.52
2018-04-16T11:55:50.679Z,99409.02
2018-04-16T11:58:24.189Z,99411.27
2018-04-16T12:00:59.600Z,99412.89
2018-04-16T12:03:35.956Z,99424.76
2018-04-16T12:06:13.651Z,99426.77
2018-04-16T12:08:47.928Z,99424.90
2018-04-16T12:11:22.100Z,99423.59
2018-04-16T12:13:56.369Z,99436.94
2018-04-16T12:16:29.953Z,99439.03
2018-04-16T12:19:03.526Z,99438.20
2018-04-16T12:21:42.239Z,99433.22
2018-04-16T12:24:15.673Z,99442.53
2018-04-16T12:26:49.940Z,99447.14
2018-04-16T12:29:24.004Z,99450.48
2018-04-16T12:31:58.031Z,99459.08
2018-04-16T12:34:33.961Z,99456.66
2018-04-16T12:37:11.187Z,99459.34
2018-04-16T12:39:44.967Z,99464.55
2018-04-16T12:42:18.933Z,99462.97
2018-04-16T12:44:52.650Z,99466.33
2018-04-16T12:47:26.951Z,99473.02
2018-04-16T12:50:11.468Z,99471.12
2018-04-16T12:52:46.798Z,99472.98
2018-04-16T12:55:20.899Z,99477.38
2018-04-16T12:57:54.125Z,99477.15
2018-04-16T13:00:27.989Z,99475.92
2018-04-16T13:03:01.824Z,99479.88
2018-04-16T13:05:35.241Z,99482.41
2018-04-16T13:08:09.880Z,99481.34
2018-04-16T13:10:44.802Z,99479.34
2018-04-16T13:13:18.262Z,99483.17
2018-04-16T13:18:32.638Z,99488.23
2018-04-16T13:21:07.281Z,99486.92
2018-04-16T13:23:40.836Z,99484.47
2018-04-16T13:26:15.234Z,99490.34
2018-04-16T13:28:55.660Z,99488.84
2018-04-16T13:31:33.923Z,99485.55
2018-04-16T13:34:09.672Z,99489.06
2018-04-16T13:36:50.263Z,99484.77
2018-04-16T13:39:25.493Z,99487.48
2018-04-16T13:41:59.167Z,99489.13
2018-04-16T13:44:33.085Z,99489.72
2018-04-16T13:47:09.057Z,99489.56
2018-04-16T13:49:43.187Z,99491.95
2018-04-16T13:52:16.548Z,99488.59
2018-04-16T13:54:50.976Z,99488.84
2018-04-16T13:57:24.928Z,99495.86
2018-04-16T13:59:59.954Z,99488.97
2018-04-16T14:02:36.247Z,99489.14
2018-04-16T14:05:10.486Z,99492.08
2018-04-16T14:07:43.920Z,99494.30
2018-04-16T14:10:17.835Z,99487.53
2018-04-16T14:12:52.864Z,99492.55
2018-04-16T14:15:34.284Z,99496.21
2018-04-16T14:18:13.376Z,99484.24
2018-04-16T14:20:50.879Z,99504.16
2018-04-16T14:23:28.880Z,99501.69
2018-04-16T14:26:02.418Z,99513.33
2018-04-16T14:28:37.071Z,99516.95
2018-04-16T14:31:10.816Z,99516.02
2018-04-16T14:33:47.182Z,99513.27
2018-04-16T14:36:20.444Z,99516.63
2018-04-16T14:38:54.780Z,99518.59
2018-04-16T14:41:28.205Z,99522.30
2018-04-16T14:44:04.936Z,99518.97
2018-04-16T14:46:39.921Z,99525.30
2018-04-16T14:49:13.986Z,99523.89
2018-04-16T14:51:49.035Z,99528.03
2018-04-16T14:54:22.417Z,99528.20
2018-04-16T14:56:56.499Z,99528.95
2018-04-16T14:59:29.893Z,99532.29
2018-04-16T15:02:04.361Z,99537.51
2018-04-16T15:04:44.252Z,99535.84
2018-04-16T15:07:18.881Z,99533.15
2018-04-16T15:09:52.470Z,99540.94
2018-04-16T15:12:25.804Z,99540.46
2018-04-16T15:15:03.732Z,99533.94
2018-04-16T15:17:40.677Z,99543.67
2018-04-16T15:20:14.754Z,99540.86
2018-04-16T15:22:48.107Z,99546.88
2018-04-16T15:25:23.294Z,99552.16
2018-04-16T15:27:56.640Z,99552.94
2018-04-16T15:30:30.388Z,99558.13
2018-04-16T15:33:04.225Z,99556.94
2018-04-16T15:35:37.540Z,99552.16
2018-04-16T15:38:11.378Z,99552.03
2018-04-16T15:40:45.166Z,99553.91
2018-04-16T15:43:18.707Z,99554.91
2018-04-16T15:45:52.460Z,99552.91
2018-04-16T15:48:26.215Z,99558.55
2018-04-16T15:50:59.968Z,99549.02
2018-04-16T15:53:34.216Z,99552.05
2018-04-16T15:56:07.753Z,99550.96
2018-04-16T15:58:41.240Z,99553.47
2018-04-16T16:01:15.156Z,99557.89
2018-04-16T16:03:48.884Z,99550.65
2018-04-16T16:06:22.893Z,99554.51
2018-04-16T16:08:57.184Z,99562.92
2018-04-16T16:11:37.115Z,99561.73
2018-04-16T16:14:16.430Z,99558.81
2018-04-16T16:16:52.575Z,99567.39
2018-04-16T16:19:27.797Z,99560.63
2018-04-16T16:22:01.606Z,99564.66
2018-04-16T16:24:35.477Z,99558.55
2018-04-16T16:27:10.334Z,99560.84
2018-04-16T16:29:44.202Z,99567.81
2018-04-16T16:32:17.692Z,99565.91
2018-04-16T16:34:51.608Z,99571.48
2018-04-16T16:37:25.456Z,99574.34
2018-04-16T16:39:59.750Z,99570.16
2018-04-16T16:42:33.863Z,99570.84
2018-04-16T16:45:07.686Z,99574.97
2018-04-16T16:47:41.545Z,99576.92
2018-04-16T16:50:15.496Z,99578.79
2018-04-16T16:52:49.346Z,99584.87
2018-04-16T16:55:23.114Z,99579.89
2018-04-16T16:57:56.738Z,99589.21
2018-04-16T17:00:32.165Z,99590.27
2018-04-16T17:03:06.123Z,99598.20
2018-04-16T17:05:40.946Z,99594.21
2018-04-16T17:08:17.928Z,99591.76
2018-04-16T17:10:55.738Z,99593.36
2018-04-16T17:13:33.755Z,99601.83
2018-04-16T17:16:08.730Z,99608.34
2018-04-16T17:18:45.826Z,99619.98
2018-04-16T17:21:22.065Z,99613.42
2018-04-16T17:24:02.118Z,99619.81
2018-04-16T17:26:53.266Z,99627.32
2018-04-16T17:29:40.184Z,99627.93
2018-04-16T17:32:14.200Z,99631.67
2018-04-16T17:34:49.003Z,99630.67
2018-04-16T17:37:23.085Z,99638.02
2018-04-16T17:39:56.728Z,99642.45
2018-04-16T17:42:30.566Z,99644.95
2018-04-16T17:45:04.377Z,99650.92
2018-04-16T17:47:39.777Z,99656.13
2018-04-16T17:50:13.713Z,99658.70
2018-04-16T17:52:49.218Z,99658.95
2018-04-16T17:55:24.600Z,99655.27
2018-04-16T17:57:59.966Z,99654.54
2018-04-16T18:00:36.176Z,99654.59
2018-04-16T18:03:16.359Z,99659.06
2018-04-16T18:05:50.877Z,99671.44
2018-04-16T18:08:25.242Z,99677.05
2018-04-16T18:11:03.909Z,99691.33
2018-04-16T18:13:41.663Z,99695.44
2018-04-16T18:16:17.792Z,99704.66
2018-04-16T18:18:52.220Z,99710.93
2018-04-16T18:21:26.038Z,99715.61
2018-04-16T18:24:03.193Z,99711.80
2018-04-16T18:26:37.610Z,99721.47
2018-04-16T18:29:12.818Z,99725.29
2018-04-16T18:31:48.312Z,99729.38
2018-04-16T18:34:22.527Z,99741.73
2018-04-16T18:36:57.789Z,99744.74
2018-04-16T18:39:31.774Z,99742.63
2018-04-16T18:42:07.748Z,99746.34
2018-04-16T18:44:42.124Z,99744.98
2018-04-16T18:47:18.629Z,99750.09
2018-04-16T18:49:52.819Z,99756.69
2018-04-16T18:52:26.939Z,99767.05
2018-04-16T18:55:00.748Z,99767.51
2018-04-16T18:57:34.855Z,99771.30
2018-04-16T19:00:10.699Z,99775.72
2018-04-16T19:02:46.085Z,99779.61
2018-04-16T19:05:19.654Z,99782.23
2018-04-16T19:07:52.988Z,99776.05
2018-04-16T19:10:27.104Z,99782.22
2018-04-16T19:13:01.404Z,99780.38
2018-04-16T19:15:35.153Z,99784.48
2018-04-16T19:18:09.207Z,99785.11
2018-04-16T19:20:47.270Z,99788.89
2018-04-16T19:23:21.348Z,99789.89
2018-04-16T19:25:56.235Z,99796.02
2018-04-16T19:28:30.577Z,99797.60
2018-04-16T19:31:06.361Z,99790.09
2018-04-16T19:35:47.893Z,99795.20
2018-04-16T19:38:22.267Z,99793.77
2018-04-16T19:40:56.438Z,99797.30
2018-04-16T19:43:33.554Z,99806.67
2018-04-16T19:46:08.245Z,99813.27
2018-04-16T19:48:47.196Z,99815.27
2018-04-16T19:51:27.577Z,99814.62
2018-04-16T19:54:05.795Z,99818.95
2018-04-16T19:58:50.879Z,99820.39
2018-04-16T20:01:26.266Z,99812.56
2018-04-16T20:04:01.881Z,99818.94
2018-04-16T20:06:36.034Z,99825.60
2018-04-16T20:09:09.840Z,99819.73
2018-04-16T20:11:45.686Z,99830.04
2018-04-16T20:14:20.223Z,99841.27
2018-04-16T20:16:54.363Z,99848.20
2018-04-16T20:19:28.267Z,99842.47
2018-04-16T20:22:10.222Z,99841.59
2018-04-16T20:24:45.627Z,99840.78
2018-04-16T20:27:20.436Z,99840.34
2018-04-16T20:29:54.321Z,99846.21
2018-04-16T20:32:27.680Z,99853.06
2018-04-16T20:35:01.215Z,99859.96
2018-04-16T20:37:35.394Z,99862.25
2018-04-16T20:40:10.348Z,99864.11
2018-04-16T20:42:44.029Z,99871.11
2018-04-16T20:45:17.547Z,99870.20
2018-04-16T20:47:51.039Z,99880.03
2018-04-16T20:50:24.327Z,99880.20
2018-04-16T20:52:57.694Z,99889.34
2018-04-16T20:55:31.543Z,99891.25
2018-04-16T20:58:04.868Z,99887.77
2018-04-16T21:00:38.435Z,99880.67
2018-04-16T21:03:12.031Z,99877.98
2018-04-16T21:05:45.766Z,99886.27
2018-04-16T21:08:19.814Z,99887.86
2018-04-16T21:10:53.465Z,99888.55
2018-04-16T21:13:27.645Z,99896.78
2018-04-16T21:16:02.649Z,99895.23
2018-04-16T21:18:36.287Z,99898.81
2018-04-16T21:21:10.277Z,99901.34
2018-04-16T21:23:44.588Z,99894.91
2018-04-16T21:26:18.398Z,99891.09
2018-04-16T21:28:51.600Z,99888.09
2018-04-16T21:31:25.141Z,99890.80
2018-04-16T21:33:58.865Z,99890.23
2018-04-16T21:36:32.364Z,99898.88
2018-04-16T21:39:06.307Z,99904.09
2018-04-16T21:41:39.866Z,99907.89
2018-04-16T21:44:13.160Z,99917.02
2018-04-16T21:46:47.236Z,99923.44
2018-04-16T21:49:21.212Z,99919.87
2018-04-16T21:51:54.889Z,99930.88
2018-04-16T21:54:29.367Z,99936.14
2018-04-16T21:57:02.693Z,99946.13
2018-04-16T21:59:36.300Z,99951.91
2018-04-16T22:02:09.827Z,99953.52
2018-04-16T22:04:43.062Z,99953.94
2018-04-16T22:07:16.492Z,99964.67
2018-04-16T22:09:49.935Z,99964.61
2018-04-16T22:12:23.569Z,99975.11
2018-04-16T22:14:56.877Z,99985.21
2018-04-16T22:17:30.325Z,99981.02
2018-04-16T22:20:03.814Z,99984.16
2018-04-16T22:22:37.230Z,99987.36
2018-04-16T22:25:10.939Z,99981.27
2018-04-16T22:27:44.455Z,99984.23
2018-04-16T22:30:17.793Z,99995.34
2018-04-16T22:32:51.802Z,100002.89
2018-04-16T22:35:25.079Z,100005.97
2018-04-16T22:37:58.449Z,100014.07
2018-04-16T22:40:31.951Z,100014.47
2018-04-16T22:43:05.137Z,100015.95
2018-04-16T22:45:38.321Z,100018.70
2018-04-16T22:48:11.733Z,100028.70
2018-04-16T22:50:44.867Z,100033.34
2018-04-16T22:53:19.378Z,100032.12
2018-04-16T22:55:52.821Z,100027.95
2018-04-16T22:58:26.424Z,100035.49
2018-04-16T23:01:01.197Z,100036.72
2018-04-16T23:03:34.704Z,100037.52
2018-04-16T23:06:07.906Z,100043.62
2018-04-16T23:08:41.294Z,100044.61
2018-04-16T23:11:14.766Z,100040.50
2018-04-16T23:13:49.069Z,100037.78
2018-04-16T23:16:22.365Z,100037.49
2018-04-16T23:19:09.980Z,100042.77
2018-04-16T23:21:49.854Z,100051.94
2018-04-16T23:24:24.398Z,100055.88
2018-04-16T23:27:06.077Z,100059.10
2018-04-16T23:29:45.997Z,100063.14
2018-04-16T23:32:22.987Z,100067.95
2018-04-16T23:34:57.081Z,100066.80
2018-04-16T23:37:33.138Z,100070.20
2018-04-16T23:40:08.104Z,100071.95
2018-04-16T23:42:43.348Z,100070.38
2018-04-16T23:45:19.312Z,100078.59
2018-04-16T23:47:54.693Z,100075.33
2018-04-16T23:50:29.572Z,100075.00
2018-04-16T23:53:05.153Z,100078.07
2018-04-16T23:55:39.969Z,100078.91
2018-04-16T23:58:14.920Z,100085.91
